Weather at El Arish International Airport

Public forecast

Using degrees Celsius for public forecast. Weather courtesy of forecast.io.

Current aviation weather report (METAR) for El Arish International Airport

2024/02/24 15:00 (retrieved 43 minutes ago)

HEAR 241500Z 34007KT CAVOK 20/12 Q1020 NOSIG

Aviation forecast (TAF) for El Arish International Airport

2024/02/24 12:08 (retrieved 4 hours ago)

TAF HEAR 241100Z 2412/2518 34009KT 9999 SCT025 TEMPO 2412/2415 4000 RA BKN020